Time;durP1;ratioP1;P1;durP2;ratioP2;P2;SDS_P1;SDS_P2;PMS_P1;PMS_P2;Temp;Humidity;BMP_temperature;BMP_pressure;BME280_temperature;BME280_humidity;BME280_pressure;Samples;Min_cycle;Max_cycle;Signal;HPM_P1;HPM_P2
2022/05/01 00:02:07;;;;;;;;;;;;;;;14.97;55.05;101149.84;5003593;27;98437;-68
2022/05/01 00:04:33;;;;;;;;;;;;;;;14.94;55.09;101145.81;5003328;27;97930;-68
2022/05/01 00:06:58;;;;;;;;;;;;;;;14.92;54.90;101147.16;5001835;27;97982;-70
2022/05/01 00:09:24;;;;;;;;;;;;;;;14.90;54.80;101136.59;5001405;27;128313;-70
2022/05/01 00:11:50;;;;;;;;;;;;;;;14.87;55.01;101139.88;4991592;27;119345;-70
2022/05/01 00:14:17;;;;;;;;;;;;;;;14.85;55.11;101139.31;4979775;28;128085;-68
2022/05/01 00:16:43;;;;;;;;;;;;;;;14.82;54.56;101139.91;4984328;27;98137;-69
2022/05/01 00:19:09;;;;;;;;;;;;;;;14.82;54.84;101147.25;4980716;27;126990;-68
2022/05/01 00:21:36;;;;;;;;;;;;;;;14.79;55.20;101131.50;5019587;27;127977;-68
2022/05/01 00:24:02;;;;;;;;;;;;;;;14.76;54.96;101145.63;5023409;27;97945;-68
2022/05/01 00:26:28;;;;;;;;;;;;;;;14.76;55.26;101148.34;5021744;27;108420;-69
2022/05/01 00:28:55;;;;;;;;;;;;;;;14.71;55.27;101141.84;5021183;27;123583;-70
2022/05/01 00:31:21;;;;;;;;;;;;;;;14.70;55.01;101147.56;5024411;27;98592;-70
2022/05/01 00:36:31;;;;;;;;;;;;;;;14.65;55.21;101153.81;5020712;27;97784;-69
2022/05/01 00:39:02;;;;;;;;;;;;;;;14.62;54.95;101143.53;5021437;27;127395;-68
2022/05/01 00:41:32;;;;;;;;;;;;;;;14.60;54.91;101148.41;5029405;27;100187;-69
2022/05/01 00:44:00;;;;;;;;;;;;;;;14.58;55.03;101153.31;5020777;27;98294;-68
2022/05/01 00:46:26;;;;;;;;;;;;;;;14.56;55.08;101150.06;5023669;27;97940;-68
2022/05/01 00:48:52;;;;;;;;;;;;;;;14.54;54.91;101157.66;5020983;27;124701;-68
2022/05/01 00:51:20;;;;;;;;;;;;;;;14.52;54.85;101148.19;5023514;27;98587;-68
2022/05/01 00:53:47;;;;;;;;;;;;;;;14.51;55.04;101154.69;5019661;27;99836;-68
2022/05/01 00:56:13;;;;;;;;;;;;;;;14.47;55.04;101157.13;5015287;27;98000;-69
2022/05/01 00:58:39;;;;;;;;;;;;;;;14.45;54.96;101154.66;5002410;27;98363;-68
2022/05/01 01:01:05;;;;;;;;;;;;;;;14.43;55.44;101147.91;5000780;27;98426;-68
2022/05/01 01:03:31;;;;;;;;;;;;;;;14.41;55.05;101152.78;4999595;27;128053;-68
2022/05/01 01:05:57;;;;;;;;;;;;;;;14.39;55.20;101153.06;5002132;27;98486;-69
2022/05/01 01:08:23;;;;;;;;;;;;;;;14.37;55.29;101152.53;5001407;27;127302;-69
2022/05/01 01:10:48;;;;;;;;;;;;;;;14.34;55.09;101153.06;4999851;27;126954;-69
2022/05/01 01:13:14;;;;;;;;;;;;;;;14.34;55.44;101163.09;4981834;28;115602;-68
2022/05/01 01:15:41;;;;;;;;;;;;;;;14.30;55.21;101159.31;4982188;27;103510;-70
2022/05/01 01:18:07;;;;;;;;;;;;;;;14.28;55.33;101161.50;4981837;27;99032;-68
2022/05/01 01:20:36;;;;;;;;;;;;;;;14.27;55.61;101157.19;5001655;27;128632;-70
2022/05/01 01:23:02;;;;;;;;;;;;;;;14.25;55.23;101160.16;5023189;27;98615;-69
2022/05/01 01:25:30;;;;;;;;;;;;;;;14.22;55.25;101155.28;5022396;27;98067;-69
2022/05/01 01:28:02;;;;;;;;;;;;;;;14.21;55.26;101159.06;5019230;27;99041;-69
2022/05/01 01:33:19;;;;;;;;;;;;;;;14.16;55.50;101162.63;5018310;27;97800;-70
2022/05/01 01:35:47;;;;;;;;;;;;;;;14.15;55.44;101168.31;5023233;27;97886;-68
2022/05/01 01:38:13;;;;;;;;;;;;;;;14.11;55.49;101165.34;5020397;27;98835;-68
2022/05/01 01:40:45;;;;;;;;;;;;;;;14.11;55.36;101178.91;5002855;27;119339;-68
2022/05/01 01:43:11;;;;;;;;;;;;;;;14.09;55.67;101175.63;5019349;27;98218;-69
2022/05/01 01:45:37;;;;;;;;;;;;;;;14.07;55.53;101169.69;5020115;27;105927;-69
2022/05/01 01:48:13;;;;;;;;;;;;;;;14.05;55.61;101171.03;5021354;27;126196;-69
2022/05/01 01:50:40;;;;;;;;;;;;;;;14.03;55.48;101165.06;5022097;27;97933;-68
2022/05/01 01:53:06;;;;;;;;;;;;;;;14.01;55.51;101165.34;5021193;27;122680;-68
2022/05/01 01:55:32;;;;;;;;;;;;;;;13.98;55.31;101161.28;5020125;27;102431;-70
2022/05/01 01:57:58;;;;;;;;;;;;;;;13.95;55.73;101161.84;5000438;27;99081;-69
2022/05/01 02:00:24;;;;;;;;;;;;;;;13.94;55.62;101165.63;4999601;27;102027;-68
2022/05/01 02:02:59;;;;;;;;;;;;;;;13.92;55.71;101173.22;4999810;27;125048;-68
2022/05/01 02:05:26;;;;;;;;;;;;;;;13.90;55.61;101169.97;5001445;27;105319;-68
2022/05/01 02:07:55;;;;;;;;;;;;;;;13.87;55.57;101162.41;4999458;27;98984;-68
2022/05/01 02:10:20;;;;;;;;;;;;;;;13.86;55.78;101162.66;5001729;27;98263;-70
2022/05/01 02:12:46;;;;;;;;;;;;;;;13.83;55.71;101164.00;4981125;27;126461;-70
2022/05/01 02:15:12;;;;;;;;;;;;;;;13.81;55.75;101157.25;4980661;27;112309;-68
2022/05/01 02:17:39;;;;;;;;;;;;;;;13.80;55.59;101156.44;4961868;28;127667;-70
2022/05/01 02:20:05;;;;;;;;;;;;;;;13.77;55.51;101153.47;4991558;27;99053;-70
2022/05/01 02:22:31;;;;;;;;;;;;;;;13.75;55.58;101161.84;5020842;27;122721;-68
2022/05/01 02:24:57;;;;;;;;;;;;;;;13.71;55.46;101153.44;5022639;27;97959;-70
2022/05/01 02:27:23;;;;;;;;;;;;;;;13.69;55.93;101158.31;5020507;27;128074;-69
2022/05/01 02:29:49;;;;;;;;;;;;;;;13.67;55.80;101154.25;5020283;27;127563;-68
2022/05/01 02:32:15;;;;;;;;;;;;;;;13.64;55.87;101146.69;5022050;27;97840;-68
2022/05/01 02:34:41;;;;;;;;;;;;;;;13.62;55.63;101157.78;5020168;27;113413;-69
2022/05/01 02:37:07;;;;;;;;;;;;;;;13.60;55.60;101154.53;5021398;27;101680;-68
2022/05/01 02:39:34;;;;;;;;;;;;;;;13.58;55.69;101156.69;5019419;27;98342;-68
2022/05/01 02:42:00;;;;;;;;;;;;;;;13.56;55.89;101156.16;5022301;27;120211;-70
2022/05/01 02:44:26;;;;;;;;;;;;;;;13.55;55.81;101148.28;5021936;27;111690;-70
2022/05/01 02:46:52;;;;;;;;;;;;;;;13.53;55.78;101147.78;5025034;27;98245;-68
2022/05/01 02:49:17;;;;;;;;;;;;;;;13.51;55.62;101150.72;5023851;27;127396;-69
2022/05/01 02:51:43;;;;;;;;;;;;;;;13.48;55.64;101149.41;5022756;27;125219;-68
2022/05/01 02:54:09;;;;;;;;;;;;;;;13.46;55.82;101148.84;5024964;27;97924;-68
2022/05/01 02:56:35;;;;;;;;;;;;;;;13.45;55.81;101155.34;5013119;27;127786;-68
2022/05/01 02:59:01;;;;;;;;;;;;;;;13.43;55.77;101149.38;5002839;27;128341;-68
2022/05/01 03:01:29;;;;;;;;;;;;;;;13.41;56.18;101153.44;5002408;27;104739;-70
2022/05/01 03:03:55;;;;;;;;;;;;;;;13.40;55.83;101154.50;5005091;27;97756;-68
2022/05/01 03:06:21;;;;;;;;;;;;;;;13.38;55.87;101148.56;5003455;27;125573;-70
2022/05/01 03:08:47;;;;;;;;;;;;;;;13.33;55.89;101148.56;4983320;27;126513;-68
2022/05/01 03:11:13;;;;;;;;;;;;;;;13.32;55.79;101147.72;4997331;27;98099;-70
2022/05/01 03:13:39;;;;;;;;;;;;;;;13.30;55.60;101146.41;4966878;28;97857;-69
2022/05/01 03:16:05;;;;;;;;;;;;;;;13.29;55.87;101152.91;4981264;28;127968;-68
2022/05/01 03:24:00;;;;;;;;;;;;;;;13.21;55.86;101148.78;5023862;27;97839;-68
2022/05/01 03:26:26;;;;;;;;;;;;;;;13.19;55.79;101149.03;5024394;27;103519;-70
2022/05/01 03:28:52;;;;;;;;;;;;;;;13.17;55.82;101150.41;5021901;27;99469;-68
2022/05/01 03:31:17;;;;;;;;;;;;;;;13.16;55.83;101160.41;5021703;27;125467;-69
2022/05/01 03:33:44;;;;;;;;;;;;;;;13.15;55.91;101158.78;5020712;27;111734;-70
2022/05/01 03:36:10;;;;;;;;;;;;;;;13.14;55.84;101159.88;5024695;27;98167;-69
2022/05/01 03:38:37;;;;;;;;;;;;;;;13.12;55.73;101159.31;5022073;27;98270;-67
2022/05/01 03:41:05;;;;;;;;;;;;;;;13.12;55.85;101162.00;5021960;27;97853;-69
2022/05/01 03:43:32;;;;;;;;;;;;;;;13.11;55.83;101154.19;5024965;27;97908;-68
2022/05/01 03:45:58;;;;;;;;;;;;;;;13.11;55.60;101160.41;5023862;27;98414;-68
2022/05/01 03:48:24;;;;;;;;;;;;;;;13.10;55.73;101158.78;5022413;27;127874;-69
2022/05/01 03:50:51;;;;;;;;;;;;;;;13.09;55.85;101159.06;5023741;27;127828;-69
2022/05/01 03:53:18;;;;;;;;;;;;;;;13.08;55.81;101160.94;5024111;27;97862;-70
2022/05/01 03:55:43;;;;;;;;;;;;;;;13.08;55.78;101157.41;5020685;27;98553;-68
2022/05/01 03:58:09;;;;;;;;;;;;;;;13.07;55.80;101159.31;4983798;27;127101;-69
2022/05/01 04:00:35;;;;;;;;;;;;;;;13.08;55.68;101158.22;4999595;27;126524;-69
2022/05/01 04:03:01;;;;;;;;;;;;;;;13.07;55.83;101164.72;4984684;27;112815;-69
2022/05/01 04:05:27;;;;;;;;;;;;;;;13.07;55.61;101164.72;5000776;27;128421;-68
2022/05/01 04:07:53;;;;;;;;;;;;;;;13.08;55.82;101171.75;5001497;27;119135;-69
2022/05/01 04:10:19;;;;;;;;;;;;;;;13.10;55.69;101179.63;5002098;27;127699;-69
2022/05/01 04:12:45;;;;;;;;;;;;;;;13.11;55.57;101175.81;4984930;27;112675;-69
2022/05/01 04:15:12;;;;;;;;;;;;;;;13.10;55.53;101180.44;4982654;28;104383;-68
2022/05/01 04:17:40;;;;;;;;;;;;;;;13.11;55.74;101195.59;4982876;27;99175;-69
2022/05/01 04:20:08;;;;;;;;;;;;;;;13.13;55.51;101184.50;4995790;27;98142;-68
2022/05/01 04:22:41;;;;;;;;;;;;;;;13.13;55.66;101182.63;5023705;27;98107;-68
2022/05/01 04:25:20;;;;;;;;;;;;;;;13.14;55.54;101186.94;5023668;27;115277;-70
2022/05/01 04:28:07;;;;;;;;;;;;;;;13.16;55.59;101183.94;5024208;27;98438;-68
2022/05/01 04:30:33;;;;;;;;;;;;;;;13.17;55.57;101180.19;5022352;27;122507;-67
2022/05/01 04:33:07;;;;;;;;;;;;;;;13.20;55.59;101182.34;5022159;27;114354;-69
2022/05/01 04:35:38;;;;;;;;;;;;;;;13.21;55.64;101179.38;5022863;27;98725;-67
2022/05/01 04:38:14;;;;;;;;;;;;;;;13.23;55.46;101189.97;5023312;27;98542;-69
2022/05/01 04:40:41;;;;;;;;;;;;;;;13.25;55.51;101194.03;5023134;27;97850;-67
2022/05/01 04:43:08;;;;;;;;;;;;;;;13.27;55.43;101197.28;5023379;27;97951;-67
2022/05/01 04:45:35;;;;;;;;;;;;;;;13.30;55.46;101204.06;5023084;27;119163;-69
2022/05/01 04:48:01;;;;;;;;;;;;;;;13.33;55.26;101187.28;5013125;27;98507;-69
2022/05/01 04:50:27;;;;;;;;;;;;;;;13.36;55.44;101194.88;5002955;27;98220;-68
2022/05/01 04:52:53;;;;;;;;;;;;;;;13.40;55.34;101205.97;5001443;27;98336;-68
2022/05/01 04:55:19;;;;;;;;;;;;;;;13.43;55.29;101198.13;5002108;27;117760;-69
2022/05/01 04:57:45;;;;;;;;;;;;;;;13.48;55.28;101216.28;5020710;27;127247;-68
2022/05/01 05:00:11;;;;;;;;;;;;;;;13.53;55.36;101204.66;4998617;27;126251;-67
2022/05/01 05:02:41;;;;;;;;;;;;;;;13.57;55.22;101211.16;4998889;27;107207;-68
2022/05/01 05:05:09;;;;;;;;;;;;;;;13.63;55.15;101213.56;5000538;27;98912;-67
2022/05/01 05:07:38;;;;;;;;;;;;;;;13.69;55.28;101220.63;5002262;27;98397;-67
2022/05/01 05:10:05;;;;;;;;;;;;;;;13.77;55.08;101218.47;5000820;27;98429;-67
2022/05/01 05:12:32;;;;;;;;;;;;;;;13.84;55.12;101216.31;4984894;27;106029;-67
2022/05/01 05:15:00;;;;;;;;;;;;;;;13.91;54.89;101216.84;4982619;28;98655;-68
2022/05/01 05:17:26;;;;;;;;;;;;;;;13.99;55.02;101213.63;4982567;27;99211;-69
2022/05/01 05:19:52;;;;;;;;;;;;;;;14.10;54.91;101215.19;4990958;27;98923;-70
2022/05/01 05:22:18;;;;;;;;;;;;;;;14.20;54.72;101220.63;5003112;27;107567;-69
2022/05/01 05:24:44;;;;;;;;;;;;;;;14.34;54.53;101225.47;4995979;27;99818;-69
2022/05/01 05:27:10;;;;;;;;;;;;;;;14.45;54.45;101225.19;4982013;28;98682;-68
2022/05/01 05:29:36;;;;;;;;;;;;;;;14.58;54.60;101228.44;4981582;28;98447;-69
2022/05/01 05:32:02;;;;;;;;;;;;;;;14.71;54.05;101231.41;4998145;27;98033;-69
2022/05/01 05:34:28;;;;;;;;;;;;;;;14.86;54.27;101233.25;5000811;27;126799;-68
2022/05/01 05:36:54;;;;;;;;;;;;;;;15.02;53.79;101244.84;5002023;27;114220;-67
2022/05/01 05:39:20;;;;;;;;;;;;;;;15.18;53.51;101240.97;5001263;27;109978;-68
2022/05/01 05:41:46;;;;;;;;;;;;;;;15.36;53.62;101242.22;4989356;27;99007;-68
2022/05/01 05:44:12;;;;;;;;;;;;;;;15.54;53.15;101237.25;4981744;28;102346;-68
2022/05/01 05:46:38;;;;;;;;;;;;;;;15.71;52.95;101240.41;4980869;28;128221;-68
2022/05/01 05:49:03;;;;;;;;;;;;;;;15.88;53.00;101246.28;4980153;27;126534;-68
2022/05/01 05:51:29;;;;;;;;;;;;;;;16.06;52.62;101252.91;4973217;27;113684;-68
2022/05/01 05:53:56;;;;;;;;;;;;;;;16.26;52.75;101248.38;4981547;27;128018;-69
2022/05/01 05:56:22;;;;;;;;;;;;;;;16.48;52.15;101256.06;5005897;27;99067;-70
2022/05/01 05:58:48;;;;;;;;;;;;;;;16.71;51.58;101251.75;4979129;27;120472;-70
2022/05/01 06:01:14;;;;;;;;;;;;;;;16.90;51.81;101256.19;4985595;27;98215;-70
2022/05/01 06:03:40;;;;;;;;;;;;;;;17.12;51.45;101249.38;4979108;27;98498;-69
2022/05/01 06:06:06;;;;;;;;;;;;;;;17.36;51.19;101252.03;4975770;27;128160;-70
2022/05/01 06:08:33;;;;;;;;;;;;;;;17.61;50.87;101237.25;4974791;27;126741;-69
2022/05/01 06:10:58;;;;;;;;;;;;;;;17.86;50.61;101241.50;4980034;27;98159;-69
2022/05/01 06:13:24;;;;;;;;;;;;;;;18.13;50.27;101243.53;4976435;27;127047;-69
2022/05/01 06:15:50;;;;;;;;;;;;;;;18.41;49.90;101238.94;4977773;27;127187;-69
2022/05/01 06:18:16;;;;;;;;;;;;;;;18.71;49.62;101250.41;4981013;27;126868;-69
2022/05/01 06:20:43;;;;;;;;;;;;;;;19.01;49.19;101244.31;4983291;27;112506;-68
2022/05/01 06:23:09;;;;;;;;;;;;;;;19.33;49.12;101242.53;4986389;27;98214;-69
2022/05/01 06:25:46;;;;;;;;;;;;;;;19.65;48.63;101251.69;4979894;27;98285;-69
2022/05/01 06:28:12;;;;;;;;;;;;;;;20.02;48.29;101250.53;4981125;27;98181;-69
2022/05/01 06:30:39;;;;;;;;;;;;;;;20.38;48.17;101246.88;4981952;27;111975;-69
2022/05/01 06:33:07;;;;;;;;;;;;;;;20.78;47.96;101244.97;4986356;27;108240;-69
2022/05/01 06:35:33;;;;;;;;;;;;;;;21.23;47.42;101244.78;4978895;27;98277;-69
2022/05/01 06:37:59;;;;;;;;;;;;;;;21.70;47.19;101239.50;4986902;27;127152;-69
2022/05/01 06:40:25;;;;;;;;;;;;;;;22.11;46.82;101244.44;4981312;27;98029;-69
2022/05/01 06:42:50;;;;;;;;;;;;;;;22.55;46.64;101250.63;4977825;27;125135;-70
2022/05/01 06:45:16;;;;;;;;;;;;;;;22.98;46.24;101246.88;4978031;27;127780;-68
2022/05/01 06:47:42;;;;;;;;;;;;;;;23.39;45.95;101251.63;4978996;27;127689;-69
2022/05/01 06:50:09;;;;;;;;;;;;;;;23.84;45.64;101252.91;4993529;28;111832;-70
2022/05/01 06:52:34;;;;;;;;;;;;;;;24.29;45.07;101257.59;4979631;27;121988;-69
2022/05/01 06:55:00;;;;;;;;;;;;;;;24.68;44.69;101250.69;4980070;27;128057;-68
2022/05/01 06:57:26;;;;;;;;;;;;;;;25.03;44.50;101245.50;4991889;27;127308;-68
2022/05/01 06:59:52;;;;;;;;;;;;;;;25.35;44.66;101251.22;4982807;27;108790;-69
2022/05/01 07:02:18;;;;;;;;;;;;;;;25.68;44.15;101251.00;4979171;27;128663;-69
2022/05/01 07:04:44;;;;;;;;;;;;;;;26.03;43.96;101239.38;4979465;27;128120;-68
2022/05/01 07:07:10;;;;;;;;;;;;;;;26.35;43.94;101237.44;4983973;27;125302;-69
2022/05/01 07:09:36;;;;;;;;;;;;;;;26.68;43.72;101240.69;4979557;27;112294;-68
2022/05/01 07:12:02;;;;;;;;;;;;;;;27.07;43.65;101239.97;4977765;27;128208;-69
2022/05/01 07:14:28;;;;;;;;;;;;;;;27.45;43.35;101239.25;4977702;27;98291;-69
2022/05/01 07:16:54;;;;;;;;;;;;;;;27.77;43.36;101242.69;4981713;27;127988;-69
2022/05/01 07:19:20;;;;;;;;;;;;;;;28.08;43.05;101238.94;4980669;27;98071;-69
2022/05/01 07:21:46;;;;;;;;;;;;;;;28.34;43.09;101238.22;4985026;27;128111;-69
2022/05/01 07:24:12;;;;;;;;;;;;;;;28.60;43.11;101239.44;4978493;27;124197;-69
2022/05/01 07:26:38;;;;;;;;;;;;;;;28.87;42.74;101240.25;4979220;27;116371;-69
2022/05/01 07:29:04;;;;;;;;;;;;;;;29.17;42.88;101247.84;4979286;27;113851;-68
2022/05/01 07:31:30;;;;;;;;;;;;;;;29.42;42.57;101242.63;4981642;27;98500;-69
2022/05/01 07:33:56;;;;;;;;;;;;;;;29.67;42.23;101237.41;4979421;27;99007;-68
2022/05/01 07:36:23;;;;;;;;;;;;;;;29.92;42.16;101238.47;4979891;27;105922;-68
2022/05/01 07:38:49;;;;;;;;;;;;;;;30.22;41.95;101232.84;4979563;27;98070;-68
2022/05/01 07:41:18;;;;;;;;;;;;;;;30.53;41.36;101228.72;4981780;27;98959;-69
2022/05/01 07:43:44;;;;;;;;;;;;;;;30.92;40.88;101227.44;4978666;27;128962;-69
2022/05/01 07:46:10;;;;;;;;;;;;;;;31.32;40.47;101231.25;4979951;27;97913;-68
2022/05/01 07:48:36;;;;;;;;;;;;;;;31.75;40.01;101219.09;4979547;27;107239;-69
2022/05/01 07:51:02;;;;;;;;;;;;;;;32.25;39.37;101224.75;4980811;27;128458;-68
2022/05/01 07:53:28;;;;;;;;;;;;;;;32.73;39.02;101220.75;4979838;27;127321;-69
2022/05/01 07:55:56;;;;;;;;;;;;;;;33.30;38.03;101225.41;4988659;27;126671;-69
2022/05/01 07:58:22;;;;;;;;;;;;;;;33.90;37.85;101225.09;4980269;27;97812;-69
2022/05/01 08:00:48;;;;;;;;;;;;;;;34.45;36.85;101223.50;4978505;27;124409;-70
2022/05/01 08:05:59;;;;;;;;;;;;;;;35.29;36.86;101211.06;4977054;27;98181;-68
2022/05/01 08:08:33;;;;;;;;;;;;;;;35.84;36.23;101216.34;4977721;27;113609;-69
2022/05/01 08:11:00;;;;;;;;;;;;;;;36.65;35.44;101217.44;4978921;27;98355;-68
2022/05/01 08:13:25;;;;;;;;;;;;;;;37.55;34.59;101214.47;4980103;27;98860;-68
2022/05/01 08:15:51;;;;;;;;;;;;;;;38.45;33.53;101225.19;4978004;27;127515;-69
2022/05/01 08:21:05;;;;;;;;;;;;;;;40.23;32.20;101213.50;4980024;27;98070;-71
2022/05/01 08:23:31;;;;;;;;;;;;;;;40.92;31.52;101200.63;4981744;27;99250;-70
2022/05/01 08:26:02;;;;;;;;;;;;;;;41.40;31.19;101204.09;4978850;27;120644;-70
2022/05/01 08:28:30;;;;;;;;;;;;;;;42.13;30.43;101197.88;4979675;27;97901;-68
2022/05/01 08:30:56;;;;;;;;;;;;;;;42.86;29.84;101206.44;4978927;27;98845;-69
2022/05/01 08:33:22;;;;;;;;;;;;;;;43.41;29.53;101193.41;4981997;27;127850;-70
2022/05/01 08:35:48;;;;;;;;;;;;;;;43.81;29.22;101193.09;4983303;27;126616;-70
2022/05/01 08:38:13;;;;;;;;;;;;;;;44.17;29.10;101186.41;4981592;27;97932;-70
2022/05/01 08:40:40;;;;;;;;;;;;;;;44.84;28.53;101178.44;4978170;27;98130;-70
2022/05/01 08:43:06;;;;;;;;;;;;;;;45.61;27.73;101180.25;4982170;27;125193;-70
2022/05/01 08:45:50;;;;;;;;;;;;;;;46.11;27.46;101176.56;4976400;27;126822;-69
2022/05/01 08:48:24;;;;;;;;;;;;;;;46.52;26.35;101177.31;4977872;27;98074;-69
2022/05/01 08:50:50;;;;;;;;;;;;;;;46.74;24.66;101173.94;4975743;27;120615;-67
2022/05/01 08:53:17;;;;;;;;;;;;;;;46.77;23.84;101163.56;4981006;27;109954;-69
2022/05/01 08:55:44;;;;;;;;;;;;;;;46.85;23.19;101159.78;4974350;27;127394;-69
2022/05/01 08:58:10;;;;;;;;;;;;;;;46.75;22.89;101153.47;4977502;27;97940;-68
2022/05/01 09:00:37;;;;;;;;;;;;;;;46.57;22.47;101156.66;4966603;28;124506;-68
2022/05/01 09:03:04;;;;;;;;;;;;;;;46.60;21.70;101152.81;4983562;27;98482;-68
2022/05/01 09:05:31;;;;;;;;;;;;;;;46.41;21.60;101149.47;4976147;27;105811;-68
2022/05/01 09:07:57;;;;;;;;;;;;;;;46.39;21.41;101157.75;4978330;27;97971;-68
2022/05/01 09:10:26;;;;;;;;;;;;;;;46.30;20.75;101151.41;4978576;27;120803;-68
2022/05/01 09:12:53;;;;;;;;;;;;;;;45.38;20.84;101150.66;4978440;27;127965;-68
2022/05/01 09:15:33;;;;;;;;;;;;;;;44.34;21.24;101133.63;4979964;27;97792;-69
2022/05/01 09:18:09;;;;;;;;;;;;;;;43.50;21.29;101131.78;4979077;27;99046;-68
2022/05/01 09:20:39;;;;;;;;;;;;;;;43.17;21.45;101137.44;4985929;27;99387;-69
2022/05/01 09:23:06;;;;;;;;;;;;;;;43.14;20.71;101130.66;4978479;27;98216;-69
2022/05/01 09:25:33;;;;;;;;;;;;;;;43.52;20.70;101131.31;4958175;27;100500;-68
2022/05/01 09:28:00;;;;;;;;;;;;;;;43.93;20.28;101126.03;4988944;27;99452;-68
2022/05/01 09:30:39;;;;;;;;;;;;;;;44.43;19.57;101120.59;4987276;27;99310;-68
2022/05/01 09:33:05;;;;;;;;;;;;;;;45.07;19.31;101125.63;4962895;27;99070;-68
2022/05/01 09:35:32;;;;;;;;;;;;;;;45.36;18.80;101132.56;4982740;27;100940;-67
2022/05/01 09:38:24;;;;;;;;;;;;;;;45.76;18.68;101126.16;4995992;27;99555;-68
2022/05/01 09:40:55;;;;;;;;;;;;;;;46.24;18.41;101126.50;4984377;27;101028;-69
2022/05/01 09:43:43;;;;;;;;;;;;;;;46.41;18.64;101134.44;4977884;27;98527;-68
2022/05/01 09:46:19;;;;;;;;;;;;;;;46.96;18.00;101130.59;4987653;27;98402;-70
2022/05/01 09:49:05;;;;;;;;;;;;;;;47.14;17.77;101127.38;4978890;27;97810;-69
2022/05/01 09:51:35;;;;;;;;;;;;;;;47.35;17.70;101116.63;4976880;27;100482;-69
2022/05/01 09:54:02;;;;;;;;;;;;;;;47.34;17.48;101112.22;4979737;27;124795;-70
2022/05/01 09:56:41;;;;;;;;;;;;;;;47.28;17.25;101111.38;4982918;27;127622;-69
2022/05/01 09:59:07;;;;;;;;;;;;;;;47.45;17.19;101109.44;4980925;27;97950;-70
2022/05/01 10:01:33;;;;;;;;;;;;;;;47.26;17.12;101108.28;4975927;27;128504;-69
2022/05/01 10:04:02;;;;;;;;;;;;;;;47.44;16.97;101113.59;4975840;27;115881;-70
2022/05/01 10:06:29;;;;;;;;;;;;;;;47.33;17.15;101095.63;4978212;27;127614;-69
2022/05/01 10:08:55;;;;;;;;;;;;;;;47.11;17.05;101094.16;4978714;27;98503;-70
2022/05/01 10:11:22;;;;;;;;;;;;;;;47.03;17.09;101095.16;4977341;27;126674;-70
2022/05/01 10:13:48;;;;;;;;;;;;;;;47.00;16.99;101096.94;4975269;27;99223;-70
2022/05/01 10:16:17;;;;;;;;;;;;;;;46.88;16.32;101086.72;4978349;27;126720;-69
2022/05/01 10:18:46;;;;;;;;;;;;;;;46.66;16.86;101088.09;4976002;27;97999;-70
2022/05/01 10:21:12;;;;;;;;;;;;;;;46.79;16.67;101086.91;4981418;27;98980;-70
2022/05/01 10:23:40;;;;;;;;;;;;;;;46.71;17.00;101089.44;4975183;27;98303;-69
2022/05/01 10:26:20;;;;;;;;;;;;;;;46.81;16.91;101084.31;4980470;27;98315;-70
2022/05/01 10:29:11;;;;;;;;;;;;;;;46.71;16.86;101078.81;4975648;27;98152;-69
2022/05/01 10:34:58;;;;;;;;;;;;;;;46.52;16.86;101077.59;4981120;27;98178;-69
2022/05/01 10:37:27;;;;;;;;;;;;;;;46.31;17.05;101067.56;4977220;27;98304;-69
2022/05/01 10:39:53;;;;;;;;;;;;;;;46.15;16.88;101061.16;4978913;27;98280;-69
2022/05/01 10:42:50;;;;;;;;;;;;;;;46.01;16.71;101064.88;4975757;27;98141;-68
2022/05/01 10:45:43;;;;;;;;;;;;;;;45.83;16.88;101062.34;4980081;27;98320;-69
2022/05/01 10:48:11;;;;;;;;;;;;;;;45.62;17.04;101056.63;4974111;27;98372;-69
2022/05/01 10:50:38;;;;;;;;;;;;;;;45.49;17.12;101065.53;4977789;27;97892;-69
2022/05/01 10:53:05;;;;;;;;;;;;;;;45.52;16.91;101047.47;4977684;27;98666;-70
2022/05/01 10:55:52;;;;;;;;;;;;;;;45.44;16.99;101045.56;4984561;27;99226;-68
2022/05/01 10:58:26;;;;;;;;;;;;;;;45.27;17.07;101053.81;4977578;27;98326;-69
2022/05/01 11:00:53;;;;;;;;;;;;;;;45.05;17.02;101046.53;4977495;27;98143;-69
2022/05/01 11:03:26;;;;;;;;;;;;;;;44.85;17.11;101042.84;4979255;27;99083;-70
2022/05/01 11:06:13;;;;;;;;;;;;;;;44.58;17.14;101036.19;4988564;27;98973;-68
2022/05/01 11:08:39;;;;;;;;;;;;;;;44.21;17.22;101027.22;4979717;27;97911;-69
2022/05/01 11:11:07;;;;;;;;;;;;;;;43.93;16.95;101029.53;4981408;27;97996;-69
2022/05/01 11:13:36;;;;;;;;;;;;;;;43.62;17.49;101028.63;4979394;27;99595;-70
2022/05/01 11:16:03;;;;;;;;;;;;;;;43.30;17.90;101023.81;4981380;27;98984;-69
2022/05/01 11:18:30;;;;;;;;;;;;;;;43.00;17.60;101023.63;4980239;27;98402;-70
2022/05/01 11:21:15;;;;;;;;;;;;;;;42.78;17.91;101018.22;4986167;27;97938;-69
2022/05/01 11:23:43;;;;;;;;;;;;;;;42.51;17.48;101023.94;4978096;27;98653;-70
2022/05/01 11:26:11;;;;;;;;;;;;;;;42.39;17.53;101012.31;4985830;27;99277;-69
2022/05/01 11:29:10;;;;;;;;;;;;;;;42.34;17.29;101023.53;4979864;27;98166;-69
2022/05/01 11:31:35;;;;;;;;;;;;;;;42.30;17.49;101005.91;4989052;27;97889;-69
2022/05/01 11:34:17;;;;;;;;;;;;;;;41.22;18.62;100995.56;4980240;27;102214;-69
2022/05/01 11:37:01;;;;;;;;;;;;;;;41.05;18.25;101003.56;4980614;27;99237;-68
2022/05/01 11:39:46;;;;;;;;;;;;;;;41.22;18.11;101006.88;4979848;27;97753;-69
2022/05/01 11:42:29;;;;;;;;;;;;;;;41.18;18.21;100995.72;4981271;27;97836;-68
2022/05/01 11:44:56;;;;;;;;;;;;;;;41.16;18.20;100998.25;4984671;27;98519;-68
2022/05/01 11:47:25;;;;;;;;;;;;;;;40.79;18.60;100993.69;4981976;27;98123;-68
2022/05/01 11:49:51;;;;;;;;;;;;;;;39.70;19.47;100996.06;4979150;27;122247;-67
2022/05/01 11:52:17;;;;;;;;;;;;;;;38.96;19.53;100997.28;4979565;27;111780;-70
2022/05/01 11:54:54;;;;;;;;;;;;;;;37.75;19.87;100997.91;4981274;27;126013;-67
2022/05/01 12:02:24;;;;;;;;;;;;;;;35.54;20.55;100989.41;4980913;27;98059;-67
2022/05/01 12:03:11;;;;;;;;;;;;;;;35.62;20.45;100985.25;4979003;27;97865;-68
2022/05/01 12:05:47;;;;;;;;;;;;;;;35.93;20.04;100988.69;4986476;27;98548;-68
2022/05/01 12:08:14;;;;;;;;;;;;;;;36.04;20.15;100992.13;4977216;27;116586;-68
2022/05/01 12:10:41;;;;;;;;;;;;;;;36.23;19.94;100987.72;4977980;27;98304;-68
2022/05/01 12:13:21;;;;;;;;;;;;;;;36.44;20.09;100980.09;4980235;27;98275;-67
2022/05/01 12:15:47;;;;;;;;;;;;;;;36.63;19.98;100984.94;4982137;27;98663;-68
2022/05/01 12:18:13;;;;;;;;;;;;;;;36.79;19.91;100978.56;4978639;27;125483;-68
2022/05/01 12:20:39;;;;;;;;;;;;;;;36.98;20.08;100988.16;4984492;27;98440;-68
2022/05/01 12:23:11;;;;;;;;;;;;;;;37.09;19.86;100977.47;4979171;27;98136;-68
2022/05/01 12:25:40;;;;;;;;;;;;;;;37.19;19.81;100976.41;4979273;27;113789;-68
2022/05/01 12:28:08;;;;;;;;;;;;;;;37.28;19.82;100973.00;4979154;27;98971;-69
2022/05/01 12:30:34;;;;;;;;;;;;;;;37.35;19.85;100975.63;4977422;27;98361;-67
2022/05/01 12:33:00;;;;;;;;;;;;;;;37.43;19.80;100970.66;4976980;27;98034;-68
2022/05/01 12:35:26;;;;;;;;;;;;;;;36.43;20.29;100962.44;4977012;27;127487;-68
2022/05/01 12:37:52;;;;;;;;;;;;;;;35.63;20.47;100967.22;4976796;27;98359;-68
2022/05/01 12:45:53;;;;;;;;;;;;;;;35.02;20.31;100957.00;4977722;27;98607;-68
2022/05/01 12:48:20;;;;;;;;;;;;;;;35.13;20.39;100951.22;4978417;27;127460;-67
2022/05/01 12:50:50;;;;;;;;;;;;;;;35.28;20.69;100951.78;4978081;27;97899;-67
2022/05/01 12:53:29;;;;;;;;;;;;;;;35.47;20.37;100948.25;4978154;27;98647;-68
2022/05/01 12:56:01;;;;;;;;;;;;;;;35.69;20.58;100954.31;4985939;27;98645;-68
2022/05/01 12:58:32;;;;;;;;;;;;;;;35.80;20.87;100949.25;4977472;27;98191;-67
2022/05/01 13:01:02;;;;;;;;;;;;;;;35.36;21.10;100961.66;4985856;27;98002;-67
2022/05/01 13:03:38;;;;;;;;;;;;;;;34.57;21.46;100948.81;4978967;27;99203;-67
2022/05/01 13:06:14;;;;;;;;;;;;;;;33.94;21.59;100948.34;4980373;27;98423;-67
2022/05/01 13:08:41;;;;;;;;;;;;;;;33.31;21.65;100956.09;4978086;27;113998;-68